createdAt,value
2022-08-24T00:00:18.593Z,97894.75
2022-08-24T00:03:07.401Z,97892.38
2022-08-24T00:05:38.564Z,97891.20
2022-08-24T00:08:09.723Z,97896.48
2022-08-24T00:10:41.079Z,97899.98
2022-08-24T00:13:12.265Z,97898.06
2022-08-24T00:15:43.791Z,97895.77
2022-08-24T00:18:15.775Z,97898.89
2022-08-24T00:20:48.632Z,97902.88
2022-08-24T00:23:19.444Z,97900.41
2022-08-24T00:25:51.084Z,97897.55
2022-08-24T00:28:22.100Z,97898.37
2022-08-24T00:30:53.382Z,97896.65
2022-08-24T00:33:24.316Z,97894.64
2022-08-24T00:35:55.492Z,97893.85
2022-08-24T00:38:27.852Z,97885.20
2022-08-24T00:41:01.145Z,97893.39
2022-08-24T00:43:33.124Z,97890.52
2022-08-24T00:46:14.531Z,97888.70
2022-08-24T00:48:50.651Z,97891.40
2022-08-24T00:51:25.530Z,97894.20
2022-08-24T00:53:59.076Z,97896.52
2022-08-24T00:56:33.491Z,97898.45
2022-08-24T00:59:07.864Z,97892.73
2022-08-24T01:01:39.348Z,97889.17
2022-08-24T01:04:15.666Z,97887.55
2022-08-24T01:06:49.927Z,97887.40
2022-08-24T01:09:21.035Z,97890.40
2022-08-24T01:11:52.260Z,97891.67
2022-08-24T01:14:24.891Z,97891.90
2022-08-24T01:17:18.933Z,97890.95
2022-08-24T01:19:52.772Z,97892.02
2022-08-24T01:22:45.081Z,97887.69
2022-08-24T01:25:16.562Z,97887.95
2022-08-24T01:27:49.041Z,97890.54
2022-08-24T01:30:24.586Z,97886.40
2022-08-24T01:33:05.526Z,97883.02
2022-08-24T01:35:38.311Z,97882.63
2022-08-24T01:38:11.574Z,97875.17
2022-08-24T01:40:47.896Z,97871.59
2022-08-24T01:43:18.855Z,97864.89
2022-08-24T01:45:50.230Z,97866.52
2022-08-24T01:48:23.133Z,97865.21
2022-08-24T01:50:54.566Z,97868.66
2022-08-24T01:53:25.580Z,97866.54
2022-08-24T01:55:56.452Z,97872.66
2022-08-24T01:58:27.342Z,97873.48
2022-08-24T02:00:58.657Z,97874.55
2022-08-24T02:03:30.730Z,97871.05
2022-08-24T02:06:01.687Z,97874.95
2022-08-24T02:08:36.705Z,97880.69
2022-08-24T02:11:09.892Z,97886.45
2022-08-24T02:13:42.664Z,97884.45
2022-08-24T02:16:14.382Z,97884.77
2022-08-24T02:18:46.216Z,97884.76
2022-08-24T02:21:17.863Z,97883.15
2022-08-24T02:23:49.189Z,97885.36
2022-08-24T02:26:20.548Z,97891.17
2022-08-24T02:28:51.697Z,97886.08
2022-08-24T02:31:22.880Z,97890.59
2022-08-24T02:33:54.470Z,97892.95
2022-08-24T02:36:26.683Z,97893.38
2022-08-24T02:38:58.409Z,97894.79
2022-08-24T02:41:29.480Z,97896.95
2022-08-24T02:44:01.228Z,97899.58
2022-08-24T02:46:32.721Z,97899.86
2022-08-24T02:49:11.522Z,97903.25
2022-08-24T02:51:45.826Z,97906.92
2022-08-24T02:54:18.506Z,97905.88
2022-08-24T02:56:50.257Z,97904.15
2022-08-24T02:59:21.724Z,97907.11
2022-08-24T03:01:53.297Z,97911.14
2022-08-24T03:04:24.467Z,97905.56
2022-08-24T03:06:55.432Z,97906.72
2022-08-24T03:09:26.148Z,97903.84
2022-08-24T03:12:00.099Z,97903.12
2022-08-24T03:14:31.104Z,97896.32
2022-08-24T03:17:01.984Z,97895.20
2022-08-24T03:19:33.452Z,97892.84
2022-08-24T03:22:07.851Z,97895.33
2022-08-24T03:24:38.852Z,97895.48
2022-08-24T03:27:09.824Z,97899.73
2022-08-24T03:29:40.777Z,97899.54
2022-08-24T03:32:12.078Z,97906.69
2022-08-24T03:34:43.324Z,97904.48
2022-08-24T03:37:14.357Z,97911.01
2022-08-24T03:39:47.715Z,97907.45
2022-08-24T03:42:18.879Z,97909.72
2022-08-24T03:44:50.119Z,97912.06
2022-08-24T03:47:22.993Z,97917.44
2022-08-24T03:49:54.082Z,97918.83
2022-08-24T03:52:29.963Z,97918.91
2022-08-24T03:55:03.402Z,97923.55
2022-08-24T03:57:35.135Z,97926.54
2022-08-24T04:00:09.160Z,97928.80
2022-08-24T04:02:40.419Z,97929.41
2022-08-24T04:05:14.596Z,97935.08
2022-08-24T04:07:45.364Z,97933.32
2022-08-24T04:10:16.687Z,97939.86
2022-08-24T04:12:47.670Z,97940.17
2022-08-24T04:15:19.476Z,97943.16
2022-08-24T04:17:50.245Z,97937.88
2022-08-24T04:20:21.542Z,97939.02
2022-08-24T04:22:54.412Z,97941.02
2022-08-24T04:25:25.909Z,97951.44
2022-08-24T04:27:56.873Z,97953.40
2022-08-24T04:30:27.987Z,97954.08
2022-08-24T04:32:59.457Z,97952.88
2022-08-24T04:35:30.685Z,97957.42
2022-08-24T04:38:01.705Z,97957.02
2022-08-24T04:40:33.276Z,97954.75
2022-08-24T04:43:04.303Z,97954.98
2022-08-24T04:45:39.160Z,97955.53
2022-08-24T04:48:10.616Z,97957.88
2022-08-24T04:50:43.778Z,97959.44
2022-08-24T04:53:16.041Z,97959.34
2022-08-24T04:55:49.108Z,97961.13
2022-08-24T04:58:20.807Z,97960.77
2022-08-24T05:00:51.995Z,97967.52
2022-08-24T05:03:24.159Z,97966.42
2022-08-24T05:05:55.338Z,97967.16
2022-08-24T05:08:26.337Z,97969.85
2022-08-24T05:10:57.231Z,97971.34
2022-08-24T05:13:29.162Z,97976.94
2022-08-24T05:16:00.003Z,97973.92
2022-08-24T05:18:33.050Z,97981.84
2022-08-24T05:21:07.441Z,97975.91
2022-08-24T05:23:39.468Z,97978.27
2022-08-24T05:26:16.873Z,97980.35
2022-08-24T05:28:48.264Z,97979.54
2022-08-24T05:31:22.520Z,97977.56
2022-08-24T05:33:54.187Z,97979.17
2022-08-24T05:36:28.732Z,97976.65
2022-08-24T05:39:02.332Z,97981.06
2022-08-24T05:41:34.398Z,97981.83
2022-08-24T05:44:06.712Z,97984.80
2022-08-24T05:46:38.284Z,97985.06
2022-08-24T05:49:09.262Z,97985.27
2022-08-24T05:51:42.846Z,97974.86
2022-08-24T05:54:14.815Z,97973.54
2022-08-24T05:56:45.988Z,97970.32
2022-08-24T05:59:18.172Z,97972.13
2022-08-24T06:01:49.614Z,97965.65
2022-08-24T06:04:21.149Z,97968.65
2022-08-24T06:06:52.363Z,97971.50
2022-08-24T06:09:23.637Z,97979.04
2022-08-24T06:11:54.611Z,97978.95
2022-08-24T06:14:27.159Z,97980.81
2022-08-24T06:16:58.340Z,97977.77
2022-08-24T06:19:29.754Z,97977.98
2022-08-24T06:22:01.527Z,97975.75
2022-08-24T06:24:50.067Z,97972.92
2022-08-24T06:27:25.628Z,97973.02
2022-08-24T06:29:59.153Z,97967.70
2022-08-24T06:32:30.677Z,97961.65
2022-08-24T06:35:01.739Z,97956.31
2022-08-24T06:37:33.856Z,97957.35
2022-08-24T06:40:07.134Z,97954.87
2022-08-24T06:42:38.369Z,97957.71
2022-08-24T06:45:11.022Z,97956.23
2022-08-24T06:47:42.303Z,97957.02
2022-08-24T06:50:13.130Z,97955.89
2022-08-24T06:52:44.151Z,97961.08
2022-08-24T06:55:15.193Z,97964.88
2022-08-24T06:57:50.357Z,97968.08
2022-08-24T07:00:25.149Z,97968.66
2022-08-24T07:02:57.217Z,97969.73
2022-08-24T07:05:28.984Z,97972.39
2022-08-24T07:08:00.453Z,97971.84
2022-08-24T07:10:31.818Z,97967.97
2022-08-24T07:13:04.168Z,97967.00
2022-08-24T07:15:35.685Z,97966.23
2022-08-24T07:18:10.151Z,97968.23
2022-08-24T07:20:41.763Z,97969.96
2022-08-24T07:23:14.981Z,97968.78
2022-08-24T07:25:49.592Z,97967.81
2022-08-24T07:28:31.799Z,97966.82
2022-08-24T07:31:03.915Z,97967.11
2022-08-24T07:33:35.219Z,97966.77
2022-08-24T07:36:06.916Z,97965.77
2022-08-24T07:38:39.783Z,97972.66
2022-08-24T07:41:37.832Z,97972.11
2022-08-24T07:44:01.402Z,97977.77
2022-08-24T07:46:32.667Z,97977.85
2022-08-24T07:49:12.616Z,97980.52
2022-08-24T07:51:53.377Z,97985.40
2022-08-24T07:54:24.651Z,97986.86
2022-08-24T07:56:55.611Z,97992.54
2022-08-24T07:59:26.572Z,97989.96
2022-08-24T08:01:57.902Z,97993.67
2022-08-24T08:04:29.294Z,97993.25
2022-08-24T08:07:01.925Z,97991.84
2022-08-24T08:09:33.313Z,97988.97
2022-08-24T08:12:04.675Z,97988.60
2022-08-24T08:14:35.966Z,97986.56
2022-08-24T08:17:07.982Z,97993.53
2022-08-24T08:19:38.834Z,97997.40
2022-08-24T08:22:27.485Z,97999.83
2022-08-24T08:24:58.956Z,97997.23
2022-08-24T08:27:30.283Z,97995.38
2022-08-24T08:30:01.072Z,97996.24
2022-08-24T08:32:32.161Z,97999.13
2022-08-24T08:35:03.145Z,98003.11
2022-08-24T08:40:20.267Z,98004.92
2022-08-24T08:43:05.994Z,98005.98
2022-08-24T08:46:13.266Z,98004.14
2022-08-24T08:49:04.031Z,98002.12
2022-08-24T08:52:24.784Z,98003.24
2022-08-24T08:55:04.394Z,98005.20
2022-08-24T08:57:53.914Z,98003.24
2022-08-24T09:00:27.314Z,98006.45
2022-08-24T09:03:24.463Z,98004.73
2022-08-24T09:06:19.962Z,98003.08
2022-08-24T09:09:15.145Z,98001.48
2022-08-24T09:11:57.011Z,98003.12
2022-08-24T09:15:00.934Z,97988.89
2022-08-24T09:17:43.276Z,97992.41
2022-08-24T09:20:26.742Z,97990.47
2022-08-24T09:23:10.503Z,97990.69
2022-08-24T09:25:51.440Z,97989.30
2022-08-24T09:28:43.984Z,97985.76
2022-08-24T09:31:36.321Z,97986.96
2022-08-24T09:34:25.033Z,97988.05
2022-08-24T09:37:04.843Z,97995.19
2022-08-24T09:40:02.009Z,97995.35
2022-08-24T09:43:15.232Z,97995.02
2022-08-24T09:46:01.625Z,97991.62
2022-08-24T09:49:00.327Z,97987.19
2022-08-24T09:51:54.188Z,97988.29
2022-08-24T09:55:05.001Z,97987.30
2022-08-24T09:58:00.673Z,97986.23
2022-08-24T10:00:38.629Z,97985.63
2022-08-24T10:03:18.428Z,97981.20
2022-08-24T10:06:19.721Z,97981.56
2022-08-24T10:09:07.132Z,97987.20
2022-08-24T10:11:45.553Z,97985.70
2022-08-24T10:14:32.553Z,97984.64
2022-08-24T10:17:13.051Z,97984.15
2022-08-24T10:20:06.071Z,97989.70
2022-08-24T10:23:05.705Z,97985.92
2022-08-24T10:25:45.907Z,97985.11
2022-08-24T10:28:44.675Z,97986.86
2022-08-24T10:31:21.178Z,97986.13
2022-08-24T10:34:07.742Z,97979.89
2022-08-24T10:37:11.507Z,97977.02
2022-08-24T10:40:09.903Z,97975.86
2022-08-24T10:43:12.987Z,97973.92
2022-08-24T10:46:11.488Z,97975.57
2022-08-24T10:49:12.954Z,97980.80
2022-08-24T10:52:00.138Z,97980.69
2022-08-24T10:54:36.655Z,97979.92
2022-08-24T10:57:15.961Z,97978.34
2022-08-24T10:59:56.713Z,97974.16
2022-08-24T11:02:37.495Z,97975.23
2022-08-24T11:05:11.792Z,97982.19
2022-08-24T11:08:00.269Z,97980.96
2022-08-24T11:10:33.654Z,97975.48
2022-08-24T11:13:21.550Z,97979.48
2022-08-24T11:15:55.409Z,97980.62
2022-08-24T11:18:27.171Z,97982.92
2022-08-24T11:21:00.691Z,97981.08
2022-08-24T11:23:43.518Z,97977.25
2022-08-24T11:26:22.751Z,97976.95
2022-08-24T11:29:01.300Z,97973.92
2022-08-24T11:31:36.297Z,97974.31
2022-08-24T11:34:10.696Z,97970.17
2022-08-24T11:36:42.144Z,97968.40
2022-08-24T11:39:21.846Z,97967.17
2022-08-24T11:41:59.643Z,97962.48
2022-08-24T11:44:41.159Z,97963.39
2022-08-24T11:47:28.298Z,97956.67
2022-08-24T11:50:08.273Z,97954.86
2022-08-24T11:52:51.431Z,97955.21
2022-08-24T11:55:36.748Z,97955.91
2022-08-24T11:58:27.167Z,97957.62
2022-08-24T12:01:02.824Z,97959.98
2022-08-24T12:03:52.609Z,97958.15
2022-08-24T12:06:36.990Z,97948.02
2022-08-24T12:09:20.526Z,97950.14
2022-08-24T12:11:58.521Z,97953.71
2022-08-24T12:14:37.380Z,97953.95
2022-08-24T12:17:16.399Z,97949.81
2022-08-24T12:19:51.573Z,97953.06
2022-08-24T12:22:25.128Z,97959.65
2022-08-24T12:24:59.384Z,97956.55
2022-08-24T12:27:34.587Z,97951.13
2022-08-24T12:30:09.783Z,97949.49
2022-08-24T12:32:45.333Z,97951.68
2022-08-24T12:35:20.096Z,97951.53
2022-08-24T12:37:57.428Z,97952.46
2022-08-24T12:40:33.015Z,97952.86
2022-08-24T12:43:08.752Z,97949.46
2022-08-24T12:45:40.615Z,97947.84
2022-08-24T12:48:16.056Z,97947.33
2022-08-24T12:51:03.725Z,97943.20
2022-08-24T12:53:52.600Z,97941.20
2022-08-24T12:56:43.620Z,97943.28
2022-08-24T12:59:23.421Z,97938.34
2022-08-24T13:02:03.988Z,97937.86
2022-08-24T13:04:41.530Z,97938.10
2022-08-24T13:07:29.065Z,97936.20
2022-08-24T13:10:14.872Z,97940.34
2022-08-24T13:13:10.350Z,97938.73
2022-08-24T13:16:03.583Z,97944.61
2022-08-24T13:19:07.440Z,97939.91
2022-08-24T13:21:52.131Z,97943.45
2022-08-24T13:24:45.707Z,97948.66
2022-08-24T13:27:50.315Z,97946.83
2022-08-24T13:30:30.122Z,97939.36
2022-08-24T13:33:07.302Z,97937.59
2022-08-24T13:35:57.428Z,97941.83
2022-08-24T13:38:56.499Z,97939.98
2022-08-24T13:41:42.342Z,97939.08
2022-08-24T13:44:23.545Z,97938.05
2022-08-24T13:47:04.109Z,97937.33
2022-08-24T13:49:51.965Z,97939.39
2022-08-24T13:52:32.954Z,97935.74
2022-08-24T13:55:35.349Z,97940.86
2022-08-24T13:58:27.094Z,97940.35
2022-08-24T14:01:04.404Z,97940.44
2022-08-24T14:04:00.132Z,97939.45
2022-08-24T14:06:41.606Z,97942.65
2022-08-24T14:09:30.219Z,97939.91
2022-08-24T14:12:38.448Z,97935.30
2022-08-24T14:15:24.272Z,97935.72
2022-08-24T14:18:07.614Z,97939.89
2022-08-24T14:21:04.299Z,97941.10
2022-08-24T14:23:50.178Z,97938.44
2022-08-24T14:27:02.089Z,97936.46
2022-08-24T14:29:48.223Z,97943.02
2022-08-24T14:32:48.278Z,97940.65
2022-08-24T14:35:44.321Z,97939.27
2022-08-24T14:38:52.083Z,97932.96
2022-08-24T14:41:34.126Z,97933.30
2022-08-24T14:44:17.542Z,97927.16
2022-08-24T14:46:55.392Z,97923.73
2022-08-24T14:49:36.437Z,97923.52
2022-08-24T14:52:22.282Z,97921.23
2022-08-24T14:55:05.568Z,97924.86
2022-08-24T14:57:51.172Z,97925.50
2022-08-24T15:00:26.391Z,97920.30
2022-08-24T15:03:25.989Z,97920.45
2022-08-24T15:06:28.303Z,97916.47
2022-08-24T15:09:12.646Z,97920.61
2022-08-24T15:11:44.463Z,97920.84
2022-08-24T15:14:33.687Z,97914.80
2022-08-24T15:17:12.666Z,97912.30
2022-08-24T15:19:52.775Z,97912.98
2022-08-24T15:22:40.330Z,97915.59
2022-08-24T15:25:29.392Z,97912.08
2022-08-24T15:28:08.654Z,97909.80
2022-08-24T15:30:41.953Z,97908.04
2022-08-24T15:33:19.050Z,97912.48
2022-08-24T15:35:53.259Z,97910.91
2022-08-24T15:38:26.900Z,97913.96
2022-08-24T15:41:09.302Z,97913.17
2022-08-24T15:43:45.741Z,97912.38
2022-08-24T15:46:22.877Z,97910.86
2022-08-24T15:49:03.051Z,97910.67
2022-08-24T15:51:51.940Z,97904.65
2022-08-24T15:54:36.728Z,97906.79
2022-08-24T15:57:27.338Z,97904.56
2022-08-24T16:00:13.011Z,97902.58
2022-08-24T16:02:44.253Z,97898.05
2022-08-24T16:05:36.315Z,97896.02
2022-08-24T16:08:15.304Z,97892.20
2022-08-24T16:10:48.724Z,97896.20
2022-08-24T16:13:33.516Z,97897.98
2022-08-24T16:16:08.981Z,97893.09
2022-08-24T16:18:50.743Z,97894.27
2022-08-24T16:21:25.976Z,97896.35
2022-08-24T16:24:02.964Z,97899.02
2022-08-24T16:26:51.435Z,97901.30
2022-08-24T16:29:55.929Z,97900.69
2022-08-24T16:32:30.177Z,97908.90
2022-08-24T16:35:20.818Z,97905.58
2022-08-24T16:37:52.893Z,97909.30
2022-08-24T16:40:24.179Z,97915.79
2022-08-24T16:42:56.503Z,97925.73
2022-08-24T16:45:27.755Z,97928.98
2022-08-24T16:48:07.235Z,97927.89
2022-08-24T16:50:38.505Z,97935.78
2022-08-24T16:53:10.502Z,97935.12
2022-08-24T16:55:41.570Z,97937.69
2022-08-24T16:58:13.133Z,97940.88
2022-08-24T17:00:46.123Z,97940.81
2022-08-24T17:03:17.363Z,97947.27
2022-08-24T17:05:48.960Z,97946.86
2022-08-24T17:08:19.735Z,97952.65
2022-08-24T17:10:50.664Z,97947.40
2022-08-24T17:13:46.093Z,97951.92
2022-08-24T17:16:14.727Z,97946.16
2022-08-24T17:18:45.987Z,97947.63
2022-08-24T17:21:16.982Z,97950.95
2022-08-24T17:23:48.429Z,97954.02
2022-08-24T17:26:21.727Z,97954.29
2022-08-24T17:28:55.638Z,97950.95
2022-08-24T17:31:29.058Z,97949.09
2022-08-24T17:34:00.518Z,97955.92
2022-08-24T17:36:32.327Z,97963.16
2022-08-24T17:39:06.735Z,97967.96
2022-08-24T17:41:37.925Z,97966.39
2022-08-24T17:44:10.823Z,97962.34
2022-08-24T17:46:42.507Z,97964.33
2022-08-24T17:49:13.844Z,97973.63
2022-08-24T17:51:44.867Z,97975.73
2022-08-24T17:54:16.675Z,97977.09
2022-08-24T17:56:51.078Z,97977.75
2022-08-24T17:59:34.842Z,97978.03
2022-08-24T18:02:09.080Z,97985.95
2022-08-24T18:04:40.886Z,97987.21
2022-08-24T18:07:25.674Z,97992.88
2022-08-24T18:10:11.119Z,97991.78
2022-08-24T18:12:42.404Z,97991.95
2022-08-24T18:15:13.764Z,97996.64
2022-08-24T18:17:46.751Z,97996.91
2022-08-24T18:20:21.323Z,98000.20
2022-08-24T18:22:54.341Z,98005.41
2022-08-24T18:25:26.009Z,98008.92
2022-08-24T18:27:59.084Z,98010.84
2022-08-24T18:30:32.503Z,98011.71
2022-08-24T18:33:04.747Z,98019.80
2022-08-24T18:35:35.943Z,98019.91
2022-08-24T18:38:07.496Z,98021.15
2022-08-24T18:40:38.944Z,98025.52
2022-08-24T18:43:09.981Z,98029.36
2022-08-24T18:45:41.452Z,98030.21
2022-08-24T18:48:12.755Z,98024.86
2022-08-24T18:50:43.894Z,98026.14
2022-08-24T18:53:14.948Z,98031.06
2022-08-24T18:55:48.031Z,98032.38
2022-08-24T18:58:19.277Z,98031.36
2022-08-24T19:00:51.091Z,98028.06
2022-08-24T19:03:26.923Z,98028.58
2022-08-24T19:05:57.964Z,98026.01
2022-08-24T19:08:29.078Z,98023.66
2022-08-24T19:11:00.235Z,98026.92
2022-08-24T19:13:31.850Z,98031.13
2022-08-24T19:16:02.710Z,98029.31
2022-08-24T19:18:34.294Z,98036.69
2022-08-24T19:21:05.548Z,98029.00
2022-08-24T19:23:39.198Z,98027.16
2022-08-24T19:26:10.216Z,98026.71
2022-08-24T19:28:41.494Z,98022.23
2022-08-24T19:31:14.796Z,98020.13
2022-08-24T19:33:49.727Z,98019.31
2022-08-24T19:36:22.390Z,98022.14
2022-08-24T19:38:53.529Z,98018.27
2022-08-24T19:41:35.276Z,98024.56
2022-08-24T19:44:27.733Z,98024.64
2022-08-24T19:46:59.265Z,98021.45
2022-08-24T19:49:30.588Z,98019.10
2022-08-24T19:52:02.187Z,98018.02
2022-08-24T19:54:36.563Z,98020.70
2022-08-24T19:57:29.138Z,98019.50
2022-08-24T20:00:02.355Z,98017.20
2022-08-24T20:02:33.467Z,98018.93
2022-08-24T20:05:04.698Z,98017.55
2022-08-24T20:07:36.518Z,98016.55
2022-08-24T20:10:12.474Z,98016.99
2022-08-24T20:12:44.015Z,98022.11
2022-08-24T20:15:15.456Z,98021.92
2022-08-24T20:17:46.838Z,98024.30
2022-08-24T20:20:21.057Z,98021.92
2022-08-24T20:22:52.734Z,98030.66
2022-08-24T20:25:23.603Z,98032.56
2022-08-24T20:28:12.566Z,98034.28
2022-08-24T20:30:47.725Z,98035.09
2022-08-24T20:33:21.738Z,98035.23
2022-08-24T20:35:54.069Z,98033.58
2022-08-24T20:38:25.781Z,98032.36
2022-08-24T20:41:02.914Z,98039.81
2022-08-24T20:43:34.105Z,98039.55
2022-08-24T20:46:05.179Z,98043.92
2022-08-24T20:48:41.861Z,98044.83
2022-08-24T20:51:14.234Z,98041.16
2022-08-24T20:53:45.464Z,98041.73
2022-08-24T20:56:28.807Z,98037.65
2022-08-24T20:59:04.562Z,98031.37
2022-08-24T21:01:35.896Z,98036.30
2022-08-24T21:04:07.545Z,98038.14
2022-08-24T21:06:40.452Z,98035.50
2022-08-24T21:09:14.248Z,98037.33
2022-08-24T21:11:46.499Z,98035.55
2022-08-24T21:14:17.517Z,98034.48
2022-08-24T21:16:48.801Z,98036.45
2022-08-24T21:19:20.272Z,98032.64
2022-08-24T21:21:51.320Z,98031.58
2022-08-24T21:24:22.173Z,98026.23
2022-08-24T21:26:53.036Z,98028.32
2022-08-24T21:29:23.979Z,98031.27
2022-08-24T21:32:12.677Z,98029.52
2022-08-24T21:34:43.870Z,98033.02
2022-08-24T21:37:17.224Z,98034.77
2022-08-24T21:39:49.713Z,98032.17
2022-08-24T21:42:21.543Z,98039.90
2022-08-24T21:44:52.534Z,98037.04
2022-08-24T21:47:23.577Z,98032.24
2022-08-24T21:49:54.835Z,98033.65
2022-08-24T21:52:25.847Z,98033.20
2022-08-24T21:54:57.408Z,98034.34
2022-08-24T21:57:29.038Z,98029.83
2022-08-24T22:00:00.030Z,98027.64
2022-08-24T22:02:31.048Z,98023.76
2022-08-24T22:05:02.066Z,98027.28
2022-08-24T22:07:33.491Z,98024.56
2022-08-24T22:10:05.376Z,98020.09
2022-08-24T22:12:36.531Z,98023.31
2022-08-24T22:15:11.634Z,98026.53
2022-08-24T22:17:42.795Z,98028.13
2022-08-24T22:20:21.682Z,98021.60
2022-08-24T22:22:54.339Z,98017.11
2022-08-24T22:25:25.448Z,98018.98
2022-08-24T22:27:56.301Z,98021.13
2022-08-24T22:30:27.274Z,98015.14
2022-08-24T22:32:58.184Z,98019.13
2022-08-24T22:35:31.948Z,98016.89
2022-08-24T22:38:07.296Z,98014.39
2022-08-24T22:40:38.928Z,98011.66
2022-08-24T22:43:10.229Z,98009.60
2022-08-24T22:45:41.579Z,98008.45
2022-08-24T22:48:12.724Z,98009.30
2022-08-24T22:50:46.991Z,98008.91
2022-08-24T22:53:17.879Z,98003.13
2022-08-24T22:55:49.055Z,98003.19
2022-08-24T22:58:20.076Z,97998.52
2022-08-24T23:00:51.335Z,97995.63
2022-08-24T23:03:22.257Z,97991.51
2022-08-24T23:05:53.306Z,97990.86
2022-08-24T23:08:24.341Z,97990.54
2022-08-24T23:10:57.315Z,97985.52
2022-08-24T23:13:28.887Z,97990.17
2022-08-24T23:16:00.440Z,97988.98
2022-08-24T23:18:49.304Z,97982.20
2022-08-24T23:21:20.125Z,97975.22
2022-08-24T23:23:51.971Z,97976.51
2022-08-24T23:26:23.319Z,97979.27
2022-08-24T23:28:54.295Z,97977.39
2022-08-24T23:31:25.461Z,97973.88
2022-08-24T23:33:56.258Z,97970.41
2022-08-24T23:36:28.913Z,97968.38
2022-08-24T23:39:01.076Z,97968.40
2022-08-24T23:41:34.282Z,97967.89
2022-08-24T23:44:07.911Z,97965.98
2022-08-24T23:46:39.776Z,97963.54
2022-08-24T23:49:11.585Z,97966.85
2022-08-24T23:51:42.872Z,97969.44
2022-08-24T23:54:14.917Z,97966.45
2022-08-24T23:56:49.046Z,97963.95
2022-08-24T23:59:22.955Z,97965.15
